createdAt,value
2018-09-14T00:00:43.805Z,82.03
2018-09-14T00:03:13.242Z,82.41
2018-09-14T00:05:42.595Z,81.92
2018-09-14T00:08:12.014Z,82.17
2018-09-14T00:10:41.439Z,81.18
2018-09-14T00:13:10.825Z,81.56
2018-09-14T00:15:40.249Z,82.88
2018-09-14T00:18:09.648Z,83.36
2018-09-14T00:20:39.017Z,83.30
2018-09-14T00:23:08.434Z,83.65
2018-09-14T00:25:37.812Z,84.72
2018-09-14T00:28:07.303Z,84.34
2018-09-14T00:30:36.674Z,84.19
2018-09-14T00:33:06.663Z,84.04
2018-09-14T00:35:36.218Z,84.31
2018-09-14T00:38:05.703Z,84.34
2018-09-14T00:40:35.925Z,84.17
2018-09-14T00:43:05.442Z,84.22
2018-09-14T00:45:34.868Z,84.79
2018-09-14T00:48:04.330Z,84.99
2018-09-14T00:50:33.710Z,84.34
2018-09-14T00:53:03.135Z,84.68
2018-09-14T00:55:32.517Z,84.92
2018-09-14T00:58:01.942Z,85.40
2018-09-14T01:00:31.316Z,84.76
2018-09-14T01:03:00.723Z,85.14
2018-09-14T01:05:30.123Z,84.92
2018-09-14T01:07:59.537Z,85.16
2018-09-14T01:10:28.920Z,85.22
2018-09-14T01:12:58.344Z,85.74
2018-09-14T01:15:27.713Z,85.72
2018-09-14T01:17:57.113Z,86.25
2018-09-14T01:20:26.543Z,86.20
2018-09-14T01:22:55.972Z,85.98
2018-09-14T01:25:25.339Z,86.46
2018-09-14T01:27:54.760Z,86.33
2018-09-14T01:30:24.152Z,86.53
2018-09-14T01:32:53.571Z,86.63
2018-09-14T01:35:28.230Z,87.45
2018-09-14T01:37:57.638Z,87.45
2018-09-14T01:40:27.018Z,87.79
2018-09-14T01:42:56.378Z,87.45
2018-09-14T01:45:25.788Z,86.88
2018-09-14T01:47:55.165Z,86.72
2018-09-14T01:50:24.628Z,85.88
2018-09-14T01:52:53.995Z,85.63
2018-09-14T01:55:23.414Z,84.70
2018-09-14T01:57:52.816Z,85.60
2018-09-14T02:00:22.226Z,85.98
2018-09-14T02:02:51.616Z,86.49
2018-09-14T02:05:21.050Z,86.60
2018-09-14T02:07:50.427Z,86.88
2018-09-14T02:10:23.960Z,87.08
2018-09-14T02:12:54.187Z,86.89
2018-09-14T02:15:23.647Z,87.61
2018-09-14T02:17:53.030Z,87.73
2018-09-14T02:20:22.407Z,88.15
2018-09-14T02:22:51.876Z,87.82
2018-09-14T02:25:21.239Z,88.26
2018-09-14T02:27:50.660Z,87.49
2018-09-14T02:30:20.035Z,87.75
2018-09-14T02:32:49.554Z,87.67
2018-09-14T02:35:18.871Z,88.27
2018-09-14T02:37:48.277Z,88.55
2018-09-14T02:40:17.666Z,88.57
2018-09-14T02:42:47.116Z,88.78
2018-09-14T02:45:16.502Z,88.33
2018-09-14T02:47:46.007Z,87.70
2018-09-14T02:50:15.399Z,87.09
2018-09-14T02:52:44.780Z,86.88
2018-09-14T02:55:14.174Z,86.72
2018-09-14T02:57:43.613Z,87.42
2018-09-14T03:00:13.066Z,86.72
2018-09-14T03:02:42.400Z,86.65
2018-09-14T03:05:11.798Z,86.64
2018-09-14T03:07:41.211Z,85.92
2018-09-14T03:10:10.601Z,85.95
2018-09-14T03:12:40.010Z,86.09
2018-09-14T03:15:09.377Z,86.28
2018-09-14T03:17:38.814Z,86.79
2018-09-14T03:20:08.199Z,86.83
2018-09-14T03:22:37.612Z,86.74
2018-09-14T03:25:06.980Z,86.32
2018-09-14T03:27:36.432Z,86.37
2018-09-14T03:30:05.945Z,86.26
2018-09-14T03:32:35.464Z,86.93
2018-09-14T03:35:04.839Z,87.07
2018-09-14T03:37:34.219Z,87.45
2018-09-14T03:40:03.579Z,88.18
2018-09-14T03:42:33.045Z,88.26
2018-09-14T03:45:02.417Z,88.16
2018-09-14T03:47:31.856Z,88.48
2018-09-14T03:50:01.237Z,89.58
2018-09-14T03:52:30.670Z,89.73
2018-09-14T03:55:00.060Z,89.67
2018-09-14T03:57:30.491Z,89.47
2018-09-14T03:59:59.886Z,88.74
2018-09-14T04:02:29.280Z,88.34
2018-09-14T04:04:58.655Z,88.31
2018-09-14T04:07:28.094Z,87.97
2018-09-14T04:09:57.493Z,87.71
2018-09-14T04:12:26.845Z,88.00
2018-09-14T04:14:56.199Z,88.16
2018-09-14T04:17:25.596Z,87.65
2018-09-14T04:19:54.975Z,87.40
2018-09-14T04:22:24.409Z,87.75
2018-09-14T04:24:53.831Z,87.76
2018-09-14T04:27:23.314Z,87.83
2018-09-14T04:29:52.696Z,87.93
2018-09-14T04:32:22.120Z,87.79
2018-09-14T04:34:51.486Z,87.23
2018-09-14T04:37:20.926Z,87.22
2018-09-14T04:39:50.310Z,87.52
2018-09-14T04:42:19.708Z,87.10
2018-09-14T04:44:49.089Z,87.15
2018-09-14T04:47:18.535Z,87.36
2018-09-14T04:49:47.913Z,86.92
2018-09-14T04:52:17.368Z,87.20
2018-09-14T04:54:46.730Z,87.42
2018-09-14T04:57:16.199Z,87.03
2018-09-14T04:59:45.525Z,87.40
2018-09-14T05:02:14.941Z,87.55
2018-09-14T05:04:44.331Z,87.26
2018-09-14T05:07:13.755Z,87.37
2018-09-14T05:09:43.152Z,87.10
2018-09-14T05:12:12.565Z,87.45
2018-09-14T05:14:41.914Z,87.20
2018-09-14T05:17:11.356Z,87.00
2018-09-14T05:19:40.764Z,86.97
2018-09-14T05:22:10.165Z,86.82
2018-09-14T05:24:39.699Z,86.61
2018-09-14T05:27:08.973Z,86.37
2018-09-14T05:29:38.518Z,85.96
2018-09-14T05:32:07.984Z,86.14
2018-09-14T05:34:37.355Z,86.17
2018-09-14T05:37:06.782Z,85.92
2018-09-14T05:39:36.209Z,86.91
2018-09-14T05:42:05.697Z,86.69
2018-09-14T05:44:35.080Z,86.51
2018-09-14T05:47:04.514Z,86.67
2018-09-14T05:49:33.897Z,87.20
2018-09-14T05:52:03.395Z,87.00
2018-09-14T05:54:32.775Z,87.28
2018-09-14T05:57:02.197Z,87.59
2018-09-14T05:59:31.564Z,87.36
2018-09-14T06:02:01.027Z,87.47
2018-09-14T06:04:30.407Z,87.22
2018-09-14T06:06:59.841Z,87.06
2018-09-14T06:09:29.231Z,87.35
2018-09-14T06:11:58.626Z,86.81
2018-09-14T06:14:28.034Z,87.58
2018-09-14T06:16:57.447Z,87.52
2018-09-14T06:19:26.815Z,87.20
2018-09-14T06:21:56.174Z,87.00
2018-09-14T06:24:25.645Z,86.65
2018-09-14T06:26:55.020Z,86.19
2018-09-14T06:29:24.439Z,86.32
2018-09-14T06:31:53.816Z,85.68
2018-09-14T06:34:23.254Z,85.99
2018-09-14T06:36:52.838Z,85.67
2018-09-14T06:39:22.268Z,85.25
2018-09-14T06:41:51.647Z,84.77
2018-09-14T06:44:21.068Z,85.15
2018-09-14T06:46:50.434Z,84.43
2018-09-14T06:49:19.868Z,84.47
2018-09-14T06:51:49.253Z,84.43
2018-09-14T06:54:18.675Z,84.54
2018-09-14T06:56:48.046Z,84.60
2018-09-14T06:59:17.485Z,84.83
2018-09-14T07:01:46.860Z,84.22
2018-09-14T07:04:16.270Z,84.51
2018-09-14T07:06:45.643Z,84.47
2018-09-14T07:09:15.070Z,84.63
2018-09-14T07:11:44.468Z,84.57
2018-09-14T07:14:13.914Z,84.83
2018-09-14T07:16:43.296Z,85.33
2018-09-14T07:19:12.673Z,85.49
2018-09-14T07:21:42.089Z,85.59
2018-09-14T07:24:11.642Z,85.34
2018-09-14T07:26:41.041Z,86.39
2018-09-14T07:29:10.662Z,86.91
2018-09-14T07:31:39.957Z,86.63
2018-09-14T07:34:09.317Z,87.00
2018-09-14T07:36:38.773Z,86.24
2018-09-14T07:39:10.502Z,86.16
2018-09-14T07:41:39.881Z,86.45
2018-09-14T07:44:09.266Z,86.51
2018-09-14T07:46:38.642Z,86.54
2018-09-14T07:49:08.080Z,87.24
2018-09-14T07:51:37.469Z,87.57
2018-09-14T07:54:06.888Z,87.27
2018-09-14T07:56:36.269Z,87.54
2018-09-14T07:59:05.762Z,87.16
2018-09-14T08:01:35.143Z,88.31
2018-09-14T08:04:04.634Z,87.60
2018-09-14T08:06:34.003Z,86.94
2018-09-14T08:09:03.550Z,86.68
2018-09-14T08:11:32.916Z,86.05
2018-09-14T08:14:02.318Z,87.37
2018-09-14T08:16:31.662Z,87.66
2018-09-14T08:19:01.118Z,86.24
2018-09-14T08:21:31.154Z,86.23
2018-09-14T08:24:00.579Z,86.19
2018-09-14T08:26:29.947Z,85.75
2018-09-14T08:28:59.326Z,85.98
2018-09-14T08:31:28.685Z,86.50
2018-09-14T08:33:58.127Z,84.81
2018-09-14T08:36:27.515Z,85.64
2018-09-14T08:38:56.946Z,85.00
2018-09-14T08:41:26.301Z,85.53
2018-09-14T08:43:55.751Z,85.43
2018-09-14T08:46:25.162Z,84.03
2018-09-14T08:48:54.558Z,83.07
2018-09-14T08:51:23.945Z,83.43
2018-09-14T08:53:53.372Z,82.12
2018-09-14T08:56:22.749Z,82.61
2018-09-14T08:58:52.143Z,82.86
2018-09-14T09:01:21.547Z,83.13
2018-09-14T09:03:51.056Z,83.39
2018-09-14T09:06:20.350Z,83.72
2018-09-14T09:08:49.726Z,84.40
2018-09-14T09:11:19.162Z,82.90
2018-09-14T09:13:48.604Z,82.83
2018-09-14T09:16:17.954Z,83.57
2018-09-14T09:18:47.575Z,82.69
2018-09-14T09:21:16.988Z,83.27
2018-09-14T09:23:46.344Z,83.07
2018-09-14T09:26:15.765Z,84.34
2018-09-14T09:28:45.214Z,83.42
2018-09-14T09:31:14.587Z,82.47
2018-09-14T09:33:44.010Z,82.04
2018-09-14T09:36:13.387Z,81.67
2018-09-14T09:38:42.823Z,80.61
2018-09-14T09:41:12.386Z,79.47
2018-09-14T09:43:41.904Z,79.85
2018-09-14T09:46:11.211Z,78.73
2018-09-14T09:48:40.640Z,78.78
2018-09-14T09:51:10.096Z,76.33
2018-09-14T09:53:39.450Z,76.42
2018-09-14T09:56:08.819Z,75.78
2018-09-14T09:58:38.248Z,75.74
2018-09-14T10:01:12.854Z,75.70
2018-09-14T10:03:45.700Z,76.94
2018-09-14T10:06:20.211Z,76.23
2018-09-14T10:08:49.638Z,75.89
2018-09-14T10:11:19.070Z,73.87
2018-09-14T10:13:48.722Z,74.83
2018-09-14T10:16:18.100Z,74.85
2018-09-14T10:18:47.494Z,73.14
2018-09-14T10:21:17.025Z,72.63
2018-09-14T10:23:46.641Z,71.46
2018-09-14T10:26:16.015Z,71.33
2018-09-14T10:28:45.398Z,72.06
2018-09-14T10:31:14.776Z,72.47
2018-09-14T10:33:44.199Z,70.34
2018-09-14T10:36:13.557Z,69.75
2018-09-14T10:38:42.999Z,70.76
2018-09-14T10:41:12.373Z,68.58
2018-09-14T10:43:41.804Z,66.98
2018-09-14T10:46:11.182Z,69.40
2018-09-14T10:48:40.641Z,68.16
2018-09-14T10:51:10.015Z,68.27
2018-09-14T10:53:39.422Z,69.19
2018-09-14T10:56:08.812Z,67.15
2018-09-14T10:58:44.076Z,67.07
2018-09-14T11:01:15.477Z,63.07
2018-09-14T11:03:45.255Z,62.93
2018-09-14T11:06:15.298Z,61.42
2018-09-14T11:08:44.727Z,56.88
2018-09-14T11:11:14.092Z,56.82
2018-09-14T11:13:43.550Z,57.26
2018-09-14T11:16:12.918Z,59.73
2018-09-14T11:18:42.430Z,61.11
2018-09-14T11:21:11.733Z,60.20
2018-09-14T11:23:41.087Z,57.23
2018-09-14T11:26:10.449Z,59.39
2018-09-14T11:28:39.876Z,56.44
2018-09-14T11:31:09.244Z,53.55
2018-09-14T11:33:38.668Z,56.50
2018-09-14T11:36:08.169Z,54.29
2018-09-14T11:38:37.723Z,59.37
2018-09-14T11:41:06.974Z,57.77
2018-09-14T11:43:36.402Z,61.48
2018-09-14T11:46:05.848Z,63.80
2018-09-14T11:48:35.190Z,64.68
2018-09-14T11:51:04.563Z,64.30
2018-09-14T11:53:33.946Z,64.42
2018-09-14T11:56:03.308Z,62.75
2018-09-14T11:58:32.707Z,63.06
2018-09-14T12:01:02.063Z,61.54
2018-09-14T12:03:31.510Z,62.54
2018-09-14T12:06:01.142Z,58.54
2018-09-14T12:08:30.643Z,56.45
2018-09-14T12:11:00.019Z,61.43
2018-09-14T12:13:29.483Z,63.59
2018-09-14T12:15:58.821Z,62.22
2018-09-14T12:18:28.214Z,62.84
2018-09-14T12:20:57.573Z,63.55
2018-09-14T12:23:26.953Z,64.08
2018-09-14T12:25:56.325Z,64.14
2018-09-14T12:28:25.863Z,62.94
2018-09-14T12:30:55.126Z,64.35
2018-09-14T12:33:24.537Z,67.01
2018-09-14T12:35:53.895Z,66.97
2018-09-14T12:38:23.377Z,66.93
2018-09-14T12:40:52.722Z,67.35
2018-09-14T12:43:22.156Z,67.20
2018-09-14T12:45:51.524Z,67.21
2018-09-14T12:48:20.975Z,67.51
2018-09-14T12:50:50.329Z,66.78
2018-09-14T12:53:19.702Z,67.01
2018-09-14T12:55:49.079Z,65.73
2018-09-14T12:58:18.463Z,66.22
2018-09-14T13:00:47.830Z,62.89
2018-09-14T13:03:17.276Z,63.74
2018-09-14T13:05:46.794Z,62.73
2018-09-14T13:08:16.199Z,64.36
2018-09-14T13:10:45.569Z,65.41
2018-09-14T13:13:15.035Z,61.60
2018-09-14T13:15:44.391Z,60.60
2018-09-14T13:18:13.786Z,57.98
2018-09-14T13:20:43.255Z,57.81
2018-09-14T13:23:12.690Z,55.37
2018-09-14T13:25:42.246Z,55.95
2018-09-14T13:28:11.702Z,56.77
2018-09-14T13:30:41.083Z,59.17
2018-09-14T13:33:10.502Z,59.30
2018-09-14T13:35:39.924Z,57.08
2018-09-14T13:38:09.315Z,52.53
2018-09-14T13:40:38.699Z,51.12
2018-09-14T13:43:08.118Z,45.73
2018-09-14T13:45:37.486Z,44.15
2018-09-14T13:48:06.915Z,50.71
2018-09-14T13:50:36.293Z,52.23
2018-09-14T13:53:05.719Z,54.60
2018-09-14T13:55:35.167Z,55.65
2018-09-14T13:58:04.534Z,52.53
2018-09-14T14:00:33.921Z,53.64
2018-09-14T14:03:03.287Z,55.37
2018-09-14T14:05:32.670Z,57.12
2018-09-14T14:08:02.167Z,58.69
2018-09-14T14:10:31.591Z,58.17
2018-09-14T14:13:01.078Z,57.66
2018-09-14T14:15:30.422Z,57.98
2018-09-14T14:17:59.786Z,57.85
2018-09-14T14:20:29.272Z,57.31
2018-09-14T14:22:58.649Z,59.21
2018-09-14T14:25:28.058Z,59.20
2018-09-14T14:27:57.431Z,57.41
2018-09-14T14:30:26.799Z,57.58
2018-09-14T14:32:56.298Z,58.72
2018-09-14T14:35:25.667Z,56.06
2018-09-14T14:37:55.094Z,53.38
2018-09-14T14:40:24.459Z,52.40
2018-09-14T14:42:53.898Z,57.73
2018-09-14T14:45:23.258Z,54.18
2018-09-14T14:47:52.618Z,56.66
2018-09-14T14:50:22.246Z,57.60
2018-09-14T14:52:51.695Z,57.74
2018-09-14T14:55:21.095Z,57.25
2018-09-14T14:57:50.470Z,56.14
2018-09-14T15:00:19.924Z,54.69
2018-09-14T15:02:49.314Z,54.95
2018-09-14T15:05:18.739Z,56.16
2018-09-14T15:07:48.095Z,54.62
2018-09-14T15:10:17.528Z,49.64
2018-09-14T15:12:46.926Z,52.37
2018-09-14T15:15:16.332Z,56.02
2018-09-14T15:17:45.693Z,58.38
2018-09-14T15:20:15.085Z,56.37
2018-09-14T15:22:44.626Z,59.26
2018-09-14T15:25:13.987Z,58.36
2018-09-14T15:27:43.448Z,58.81
2018-09-14T15:30:12.822Z,59.52
2018-09-14T15:32:42.253Z,60.21
2018-09-14T15:35:11.676Z,60.10
2018-09-14T15:37:41.038Z,61.12
2018-09-14T15:40:10.466Z,60.71
2018-09-14T15:42:39.824Z,61.29
2018-09-14T15:45:09.266Z,61.41
2018-09-14T15:47:38.630Z,61.58
2018-09-14T15:50:08.072Z,62.01
2018-09-14T15:52:37.466Z,60.80
2018-09-14T15:55:06.861Z,61.51
2018-09-14T15:57:36.219Z,61.34
2018-09-14T16:00:06.438Z,61.73
2018-09-14T16:02:35.817Z,61.68
2018-09-14T16:05:05.278Z,61.41
2018-09-14T16:07:34.657Z,61.02
2018-09-14T16:10:04.114Z,61.59
2018-09-14T16:12:33.503Z,59.55
2018-09-14T16:15:02.978Z,61.02
2018-09-14T16:17:32.356Z,61.51
2018-09-14T16:20:01.832Z,62.62
2018-09-14T16:22:31.462Z,62.69
2018-09-14T16:25:00.901Z,62.45
2018-09-14T16:27:30.358Z,62.53
2018-09-14T16:29:59.740Z,62.89
2018-09-14T16:32:29.146Z,62.79
2018-09-14T16:34:58.521Z,62.80
2018-09-14T16:37:27.967Z,63.94
2018-09-14T16:39:57.325Z,63.26
2018-09-14T16:42:26.738Z,64.27
2018-09-14T16:44:56.120Z,64.62
2018-09-14T16:47:25.561Z,65.12
2018-09-14T16:49:54.932Z,65.96
2018-09-14T16:52:24.360Z,66.59
2018-09-14T16:54:53.744Z,66.60
2018-09-14T16:57:23.151Z,66.20
2018-09-14T16:59:52.538Z,66.50
2018-09-14T17:02:22.028Z,66.67
2018-09-14T17:04:51.411Z,66.45
2018-09-14T17:07:20.868Z,68.12
2018-09-14T17:09:50.245Z,67.79
2018-09-14T17:12:19.936Z,68.07
2018-09-14T17:14:49.429Z,68.52
2018-09-14T17:17:18.955Z,69.77
2018-09-14T17:19:48.310Z,69.67
2018-09-14T17:22:17.690Z,69.66
2018-09-14T17:24:47.054Z,70.01
2018-09-14T17:27:16.444Z,70.26
2018-09-14T17:29:45.905Z,71.52
2018-09-14T17:32:15.271Z,70.79
2018-09-14T17:34:44.640Z,71.96
2018-09-14T17:37:14.012Z,71.29
2018-09-14T17:39:43.425Z,71.46
2018-09-14T17:42:12.802Z,71.48
2018-09-14T17:44:42.277Z,71.70
2018-09-14T17:47:11.599Z,71.93
2018-09-14T17:49:41.018Z,71.54
2018-09-14T17:52:10.412Z,72.29
2018-09-14T17:54:39.855Z,71.72
2018-09-14T17:57:09.214Z,72.37
2018-09-14T17:59:38.650Z,72.60
2018-09-14T18:02:08.287Z,72.43
2018-09-14T18:04:37.762Z,72.43
2018-09-14T18:07:07.332Z,72.97
2018-09-14T18:09:36.751Z,72.77
2018-09-14T18:12:06.114Z,72.19
2018-09-14T18:14:35.559Z,72.77
2018-09-14T18:17:04.929Z,72.46
2018-09-14T18:19:34.311Z,72.69
2018-09-14T18:22:03.719Z,72.38
2018-09-14T18:24:33.174Z,72.67
2018-09-14T18:27:02.530Z,72.55
2018-09-14T18:29:32.023Z,73.32
2018-09-14T18:32:01.406Z,72.12
2018-09-14T18:34:30.799Z,71.45
2018-09-14T18:37:00.174Z,71.36
2018-09-14T18:39:29.602Z,71.53
2018-09-14T18:41:58.974Z,71.58
2018-09-14T18:44:28.416Z,71.26
2018-09-14T18:46:57.780Z,71.12
2018-09-14T18:49:27.203Z,71.42
2018-09-14T18:51:56.579Z,71.70
2018-09-14T18:54:26.022Z,71.77
2018-09-14T18:56:55.416Z,71.97
2018-09-14T18:59:24.842Z,72.82
2018-09-14T19:01:54.200Z,73.23
2018-09-14T19:04:23.627Z,72.86
2018-09-14T19:06:53.168Z,72.50
2018-09-14T19:09:22.632Z,73.22
2018-09-14T19:11:51.994Z,71.92
2018-09-14T19:14:21.395Z,70.90
2018-09-14T19:16:50.765Z,70.70
2018-09-14T19:19:20.324Z,71.21
2018-09-14T19:21:49.670Z,70.90
2018-09-14T19:24:19.183Z,71.60
2018-09-14T19:26:48.555Z,72.32
2018-09-14T19:29:17.943Z,72.79
2018-09-14T19:31:47.299Z,73.53
2018-09-14T19:34:16.761Z,73.30
2018-09-14T19:36:46.195Z,72.87
2018-09-14T19:39:15.651Z,73.00
2018-09-14T19:41:45.029Z,73.03
2018-09-14T19:44:14.465Z,73.40
2018-09-14T19:46:43.856Z,73.84
2018-09-14T19:49:13.472Z,73.55
2018-09-14T19:51:42.848Z,73.56
2018-09-14T19:54:12.318Z,73.69
2018-09-14T19:56:41.733Z,73.79
2018-09-14T19:59:11.101Z,73.29
2018-09-14T20:01:40.455Z,74.05
2018-09-14T20:04:09.884Z,73.79
2018-09-14T20:06:39.258Z,74.62
2018-09-14T20:09:12.299Z,74.19
2018-09-14T20:11:42.014Z,74.82
2018-09-14T20:14:11.397Z,74.17
2018-09-14T20:16:40.943Z,74.37
2018-09-14T20:19:10.404Z,74.29
2018-09-14T20:21:39.766Z,74.53
2018-09-14T20:24:09.245Z,74.75
2018-09-14T20:26:38.861Z,74.30
2018-09-14T20:29:08.328Z,74.67
2018-09-14T20:31:37.706Z,76.41
2018-09-14T20:34:07.240Z,77.45
2018-09-14T20:36:36.650Z,77.43
2018-09-14T20:39:09.550Z,77.22
2018-09-14T20:41:39.026Z,78.11
2018-09-14T20:44:08.699Z,78.32
2018-09-14T20:46:38.066Z,77.88
2018-09-14T20:49:07.514Z,77.83
2018-09-14T20:51:36.901Z,77.57
2018-09-14T20:54:06.411Z,78.11
2018-09-14T20:56:35.810Z,77.07
2018-09-14T20:59:05.261Z,76.61
2018-09-14T21:01:34.623Z,77.56
2018-09-14T21:04:04.017Z,76.99
2018-09-14T21:06:33.481Z,76.98
2018-09-14T21:09:02.951Z,77.26
2018-09-14T21:11:32.318Z,77.86
2018-09-14T21:14:01.765Z,78.16
2018-09-14T21:16:31.145Z,78.68
2018-09-14T21:19:00.507Z,77.41
2018-09-14T21:21:29.959Z,77.74
2018-09-14T21:23:59.747Z,78.05
2018-09-14T21:26:29.219Z,78.52
2018-09-14T21:28:58.624Z,76.90
2018-09-14T21:31:28.138Z,76.79
2018-09-14T21:33:57.762Z,77.06
2018-09-14T21:36:27.190Z,76.92
2018-09-14T21:38:56.651Z,76.07
2018-09-14T21:41:26.056Z,75.37
2018-09-14T21:43:55.856Z,75.76
2018-09-14T21:46:25.371Z,75.83
2018-09-14T21:48:54.838Z,76.53
2018-09-14T21:51:24.214Z,77.40
2018-09-14T21:53:53.699Z,77.70
2018-09-14T21:56:23.126Z,77.58
2018-09-14T21:58:52.567Z,77.67
2018-09-14T22:01:24.014Z,77.29
2018-09-14T22:03:53.434Z,77.28
2018-09-14T22:06:22.929Z,77.38
2018-09-14T22:08:52.546Z,78.34
2018-09-14T22:11:22.040Z,78.47
2018-09-14T22:13:51.937Z,79.40
2018-09-14T22:16:21.796Z,79.76
2018-09-14T22:18:51.178Z,79.29
2018-09-14T22:21:20.567Z,78.59
2018-09-14T22:23:49.960Z,78.78
2018-09-14T22:26:19.335Z,78.79
2018-09-14T22:28:48.841Z,78.76
2018-09-14T22:31:18.246Z,79.07
2018-09-14T22:33:47.752Z,79.14
2018-09-14T22:36:17.135Z,79.69
2018-09-14T22:38:46.511Z,79.51
2018-09-14T22:41:16.014Z,79.48
2018-09-14T22:43:45.722Z,79.53
2018-09-14T22:46:15.340Z,79.66
2018-09-14T22:48:44.714Z,79.56
2018-09-14T22:51:14.094Z,79.72
2018-09-14T22:53:43.498Z,79.50
2018-09-14T22:56:12.880Z,79.20
2018-09-14T22:58:42.308Z,77.88
2018-09-14T23:01:18.203Z,77.31
2018-09-14T23:03:48.621Z,76.80
2018-09-14T23:06:18.093Z,77.42
2018-09-14T23:08:47.449Z,77.17
2018-09-14T23:11:17.924Z,77.25
2018-09-14T23:13:47.320Z,77.22
2018-09-14T23:16:16.743Z,77.41
2018-09-14T23:18:46.138Z,77.20
2018-09-14T23:21:15.514Z,77.13
2018-09-14T23:23:44.922Z,77.49
2018-09-14T23:26:16.122Z,77.28
2018-09-14T23:28:45.577Z,77.69
2018-09-14T23:31:14.945Z,78.75
2018-09-14T23:33:44.322Z,79.50
2018-09-14T23:36:13.793Z,79.93
2018-09-14T23:38:43.153Z,79.88
2018-09-14T23:41:12.602Z,79.92
2018-09-14T23:43:41.961Z,80.00
2018-09-14T23:46:11.401Z,79.23
2018-09-14T23:48:40.762Z,79.64
2018-09-14T23:51:10.202Z,79.17
2018-09-14T23:53:39.555Z,79.56
2018-09-14T23:56:09.028Z,80.07
2018-09-14T23:58:38.407Z,80.53
